sensor_id;sensor_type;location;lat;lon;timestamp;temperature;humidity
30534;DHT22;17318;52.390;9.754;2023-05-14T00:01:25;15.20;84.60
30534;DHT22;17318;52.390;9.754;2023-05-14T00:03:50;15.20;85.70
30534;DHT22;17318;52.390;9.754;2023-05-14T00:06:16;15.20;86.40
30534;DHT22;17318;52.390;9.754;2023-05-14T00:08:41;15.10;86.70
30534;DHT22;17318;52.390;9.754;2023-05-14T00:11:07;14.80;88.30
30534;DHT22;17318;52.390;9.754;2023-05-14T00:13:36;14.80;88.90
30534;DHT22;17318;52.390;9.754;2023-05-14T00:16:02;14.80;89.40
30534;DHT22;17318;52.390;9.754;2023-05-14T00:18:28;14.70;89.80
30534;DHT22;17318;52.390;9.754;2023-05-14T00:20:53;14.70;90.30
30534;DHT22;17318;52.390;9.754;2023-05-14T00:23:23;14.60;90.60
30534;DHT22;17318;52.390;9.754;2023-05-14T00:25:49;14.60;90.40
30534;DHT22;17318;52.390;9.754;2023-05-14T00:28:15;14.60;90.80
30534;DHT22;17318;52.390;9.754;2023-05-14T00:30:40;14.60;91.00
30534;DHT22;17318;52.390;9.754;2023-05-14T00:33:06;14.60;91.10
30534;DHT22;17318;52.390;9.754;2023-05-14T00:35:32;14.50;91.40
30534;DHT22;17318;52.390;9.754;2023-05-14T00:38:01;14.40;91.90
30534;DHT22;17318;52.390;9.754;2023-05-14T00:40:27;14.50;91.70
30534;DHT22;17318;52.390;9.754;2023-05-14T00:42:54;14.50;91.90
30534;DHT22;17318;52.390;9.754;2023-05-14T00:45:20;14.50;92.10
30534;DHT22;17318;52.390;9.754;2023-05-14T00:47:46;14.40;92.30
30534;DHT22;17318;52.390;9.754;2023-05-14T00:50:12;14.30;92.50
30534;DHT22;17318;52.390;9.754;2023-05-14T00:52:39;14.30;92.70
30534;DHT22;17318;52.390;9.754;2023-05-14T00:55:06;14.30;93.00
30534;DHT22;17318;52.390;9.754;2023-05-14T00:57:32;14.20;93.10
30534;DHT22;17318;52.390;9.754;2023-05-14T00:59:58;14.30;93.20
30534;DHT22;17318;52.390;9.754;2023-05-14T01:02:24;14.30;93.20
30534;DHT22;17318;52.390;9.754;2023-05-14T01:04:51;14.30;93.30
30534;DHT22;17318;52.390;9.754;2023-05-14T01:10:05;14.20;93.60
30534;DHT22;17318;52.390;9.754;2023-05-14T01:15:36;14.20;93.80
30534;DHT22;17318;52.390;9.754;2023-05-14T01:18:07;14.20;93.90
30534;DHT22;17318;52.390;9.754;2023-05-14T01:20:33;14.20;93.90
30534;DHT22;17318;52.390;9.754;2023-05-14T01:22:58;14.10;94.20
30534;DHT22;17318;52.390;9.754;2023-05-14T01:25:26;14.20;94.00
30534;DHT22;17318;52.390;9.754;2023-05-14T01:28:17;14.20;93.90
30534;DHT22;17318;52.390;9.754;2023-05-14T01:30:59;14.30;93.90
30534;DHT22;17318;52.390;9.754;2023-05-14T01:33:28;14.30;93.80
30534;DHT22;17318;52.390;9.754;2023-05-14T01:35:55;14.30;94.10
30534;DHT22;17318;52.390;9.754;2023-05-14T01:38:23;14.10;94.50
30534;DHT22;17318;52.390;9.754;2023-05-14T01:40:49;14.00;94.90
30534;DHT22;17318;52.390;9.754;2023-05-14T01:43:16;13.90;95.30
30534;DHT22;17318;52.390;9.754;2023-05-14T01:45:42;13.80;95.60
30534;DHT22;17318;52.390;9.754;2023-05-14T01:48:08;13.70;95.70
30534;DHT22;17318;52.390;9.754;2023-05-14T01:50:34;13.80;95.70
30534;DHT22;17318;52.390;9.754;2023-05-14T01:52:59;13.80;95.70
30534;DHT22;17318;52.390;9.754;2023-05-14T01:55:25;13.90;95.70
30534;DHT22;17318;52.390;9.754;2023-05-14T01:57:51;13.90;95.70
30534;DHT22;17318;52.390;9.754;2023-05-14T02:00:18;13.80;95.90
30534;DHT22;17318;52.390;9.754;2023-05-14T02:02:43;13.80;96.00
30534;DHT22;17318;52.390;9.754;2023-05-14T02:05:10;13.80;95.90
30534;DHT22;17318;52.390;9.754;2023-05-14T02:07:36;13.80;96.10
30534;DHT22;17318;52.390;9.754;2023-05-14T02:10:02;13.70;96.30
30534;DHT22;17318;52.390;9.754;2023-05-14T02:12:28;13.70;96.40
30534;DHT22;17318;52.390;9.754;2023-05-14T02:14:53;13.60;96.70
30534;DHT22;17318;52.390;9.754;2023-05-14T02:17:19;13.50;96.90
30534;DHT22;17318;52.390;9.754;2023-05-14T02:19:45;13.50;97.10
30534;DHT22;17318;52.390;9.754;2023-05-14T02:22:11;13.40;97.20
30534;DHT22;17318;52.390;9.754;2023-05-14T02:24:37;13.40;97.40
30534;DHT22;17318;52.390;9.754;2023-05-14T02:27:03;13.40;97.40
30534;DHT22;17318;52.390;9.754;2023-05-14T02:29:28;13.30;97.50
30534;DHT22;17318;52.390;9.754;2023-05-14T02:31:55;13.30;97.70
30534;DHT22;17318;52.390;9.754;2023-05-14T02:34:21;13.30;97.70
30534;DHT22;17318;52.390;9.754;2023-05-14T02:36:46;13.20;97.80
30534;DHT22;17318;52.390;9.754;2023-05-14T02:39:12;13.20;97.90
30534;DHT22;17318;52.390;9.754;2023-05-14T02:41:38;13.20;98.00
30534;DHT22;17318;52.390;9.754;2023-05-14T02:44:03;13.20;98.00
30534;DHT22;17318;52.390;9.754;2023-05-14T02:46:30;13.10;98.20
30534;DHT22;17318;52.390;9.754;2023-05-14T02:48:56;13.10;98.10
30534;DHT22;17318;52.390;9.754;2023-05-14T02:51:22;13.10;98.20
30534;DHT22;17318;52.390;9.754;2023-05-14T02:53:47;13.00;98.30
30534;DHT22;17318;52.390;9.754;2023-05-14T02:56:13;13.00;98.40
30534;DHT22;17318;52.390;9.754;2023-05-14T02:58:39;13.00;98.40
30534;DHT22;17318;52.390;9.754;2023-05-14T03:01:05;13.00;98.60
30534;DHT22;17318;52.390;9.754;2023-05-14T03:03:31;12.80;98.50
30534;DHT22;17318;52.390;9.754;2023-05-14T03:05:57;12.80;98.70
30534;DHT22;17318;52.390;9.754;2023-05-14T03:08:22;13.00;98.70
30534;DHT22;17318;52.390;9.754;2023-05-14T03:10:48;12.90;98.70
30534;DHT22;17318;52.390;9.754;2023-05-14T03:13:14;12.90;98.70
30534;DHT22;17318;52.390;9.754;2023-05-14T03:15:45;12.90;98.70
30534;DHT22;17318;52.390;9.754;2023-05-14T03:18:12;12.90;98.80
30534;DHT22;17318;52.390;9.754;2023-05-14T03:20:37;12.90;98.80
30534;DHT22;17318;52.390;9.754;2023-05-14T03:23:03;12.90;98.80
30534;DHT22;17318;52.390;9.754;2023-05-14T03:25:29;12.80;98.90
30534;DHT22;17318;52.390;9.754;2023-05-14T03:27:55;12.80;98.90
30534;DHT22;17318;52.390;9.754;2023-05-14T03:30:20;12.80;98.80
30534;DHT22;17318;52.390;9.754;2023-05-14T03:32:47;12.80;98.80
30534;DHT22;17318;52.390;9.754;2023-05-14T03:35:12;12.70;99.00
30534;DHT22;17318;52.390;9.754;2023-05-14T03:37:38;12.70;99.20
30534;DHT22;17318;52.390;9.754;2023-05-14T03:40:04;12.60;99.20
30534;DHT22;17318;52.390;9.754;2023-05-14T03:42:30;12.60;99.40
30534;DHT22;17318;52.390;9.754;2023-05-14T03:44:56;12.50;99.50
30534;DHT22;17318;52.390;9.754;2023-05-14T03:47:21;12.60;99.50
30534;DHT22;17318;52.390;9.754;2023-05-14T03:49:47;12.60;99.40
30534;DHT22;17318;52.390;9.754;2023-05-14T03:52:13;12.60;99.40
30534;DHT22;17318;52.390;9.754;2023-05-14T03:54:38;12.50;99.50
30534;DHT22;17318;52.390;9.754;2023-05-14T03:57:05;12.50;99.60
30534;DHT22;17318;52.390;9.754;2023-05-14T03:59:31;12.50;99.50
30534;DHT22;17318;52.390;9.754;2023-05-14T04:01:57;12.60;99.50
30534;DHT22;17318;52.390;9.754;2023-05-14T04:04:23;12.50;99.70
30534;DHT22;17318;52.390;9.754;2023-05-14T04:06:48;12.50;99.80
30534;DHT22;17318;52.390;9.754;2023-05-14T04:09:14;12.50;99.90
30534;DHT22;17318;52.390;9.754;2023-05-14T04:11:39;12.50;99.80
30534;DHT22;17318;52.390;9.754;2023-05-14T04:14:05;12.60;99.80
30534;DHT22;17318;52.390;9.754;2023-05-14T04:16:31;12.70;99.70
30534;DHT22;17318;52.390;9.754;2023-05-14T04:18:57;12.70;99.80
30534;DHT22;17318;52.390;9.754;2023-05-14T04:21:22;12.60;99.70
30534;DHT22;17318;52.390;9.754;2023-05-14T04:23:48;12.60;99.90
30534;DHT22;17318;52.390;9.754;2023-05-14T04:26:15;12.60;99.90
30534;DHT22;17318;52.390;9.754;2023-05-14T04:28:40;12.60;99.90
30534;DHT22;17318;52.390;9.754;2023-05-14T04:31:06;12.60;99.90
30534;DHT22;17318;52.390;9.754;2023-05-14T04:33:32;12.60;99.90
30534;DHT22;17318;52.390;9.754;2023-05-14T04:35:57;12.70;99.90
30534;DHT22;17318;52.390;9.754;2023-05-14T04:38:23;12.70;99.90
30534;DHT22;17318;52.390;9.754;2023-05-14T04:40:49;12.60;99.90
30534;DHT22;17318;52.390;9.754;2023-05-14T04:43:14;12.70;99.90
30534;DHT22;17318;52.390;9.754;2023-05-14T04:45:41;12.70;99.90
30534;DHT22;17318;52.390;9.754;2023-05-14T04:48:07;12.80;99.90
30534;DHT22;17318;52.390;9.754;2023-05-14T04:50:33;12.90;99.90
30534;DHT22;17318;52.390;9.754;2023-05-14T04:52:59;12.90;99.90
30534;DHT22;17318;52.390;9.754;2023-05-14T04:55:25;12.90;99.90
30534;DHT22;17318;52.390;9.754;2023-05-14T04:57:51;13.00;99.90
30534;DHT22;17318;52.390;9.754;2023-05-14T05:00:17;13.10;99.90
30534;DHT22;17318;52.390;9.754;2023-05-14T05:02:43;13.20;99.90
30534;DHT22;17318;52.390;9.754;2023-05-14T05:05:09;13.20;99.90
30534;DHT22;17318;52.390;9.754;2023-05-14T05:07:35;13.40;99.20
30534;DHT22;17318;52.390;9.754;2023-05-14T05:10:01;13.50;99.30
30534;DHT22;17318;52.390;9.754;2023-05-14T05:12:27;13.50;99.40
30534;DHT22;17318;52.390;9.754;2023-05-14T05:14:55;13.60;99.60
30534;DHT22;17318;52.390;9.754;2023-05-14T05:17:22;13.50;99.60
30534;DHT22;17318;52.390;9.754;2023-05-14T05:19:48;13.60;99.50
30534;DHT22;17318;52.390;9.754;2023-05-14T05:22:14;13.60;99.80
30534;DHT22;17318;52.390;9.754;2023-05-14T05:24:40;13.60;99.50
30534;DHT22;17318;52.390;9.754;2023-05-14T05:27:05;13.80;99.50
30534;DHT22;17318;52.390;9.754;2023-05-14T05:29:31;13.80;98.90
30534;DHT22;17318;52.390;9.754;2023-05-14T05:31:57;13.90;98.50
30534;DHT22;17318;52.390;9.754;2023-05-14T05:34:23;14.00;98.60
30534;DHT22;17318;52.390;9.754;2023-05-14T05:36:49;14.00;98.70
30534;DHT22;17318;52.390;9.754;2023-05-14T05:39:15;14.10;98.70
30534;DHT22;17318;52.390;9.754;2023-05-14T05:41:41;14.10;99.00
30534;DHT22;17318;52.390;9.754;2023-05-14T05:44:07;14.20;98.50
30534;DHT22;17318;52.390;9.754;2023-05-14T05:46:33;14.30;98.10
30534;DHT22;17318;52.390;9.754;2023-05-14T05:48:59;14.50;97.60
30534;DHT22;17318;52.390;9.754;2023-05-14T05:51:24;14.70;97.50
30534;DHT22;17318;52.390;9.754;2023-05-14T05:53:50;14.90;97.40
30534;DHT22;17318;52.390;9.754;2023-05-14T05:56:16;15.20;96.90
30534;DHT22;17318;52.390;9.754;2023-05-14T05:58:42;15.60;96.50
30534;DHT22;17318;52.390;9.754;2023-05-14T06:01:07;15.90;96.00
30534;DHT22;17318;52.390;9.754;2023-05-14T06:03:33;16.20;96.10
30534;DHT22;17318;52.390;9.754;2023-05-14T06:05:59;16.40;96.10
30534;DHT22;17318;52.390;9.754;2023-05-14T06:08:24;16.70;95.70
30534;DHT22;17318;52.390;9.754;2023-05-14T06:10:50;17.00;94.90
30534;DHT22;17318;52.390;9.754;2023-05-14T06:13:16;17.30;94.00
30534;DHT22;17318;52.390;9.754;2023-05-14T06:15:41;17.80;93.70
30534;DHT22;17318;52.390;9.754;2023-05-14T06:18:07;17.90;92.80
30534;DHT22;17318;52.390;9.754;2023-05-14T06:20:33;18.20;92.60
30534;DHT22;17318;52.390;9.754;2023-05-14T06:22:59;18.50;92.40
30534;DHT22;17318;52.390;9.754;2023-05-14T06:25:24;18.60;91.90
30534;DHT22;17318;52.390;9.754;2023-05-14T06:27:50;18.90;91.70
30534;DHT22;17318;52.390;9.754;2023-05-14T06:30:16;19.40;91.20
30534;DHT22;17318;52.390;9.754;2023-05-14T06:32:41;19.40;90.50
30534;DHT22;17318;52.390;9.754;2023-05-14T06:35:07;19.40;90.50
30534;DHT22;17318;52.390;9.754;2023-05-14T06:37:33;19.30;90.60
30534;DHT22;17318;52.390;9.754;2023-05-14T06:40:00;19.30;90.30
30534;DHT22;17318;52.390;9.754;2023-05-14T06:42:25;19.40;90.50
30534;DHT22;17318;52.390;9.754;2023-05-14T06:44:51;19.60;89.90
30534;DHT22;17318;52.390;9.754;2023-05-14T06:47:17;19.80;89.30
30534;DHT22;17318;52.390;9.754;2023-05-14T06:49:42;19.90;88.30
30534;DHT22;17318;52.390;9.754;2023-05-14T06:52:08;20.00;87.70
30534;DHT22;17318;52.390;9.754;2023-05-14T06:54:34;20.10;87.70
30534;DHT22;17318;52.390;9.754;2023-05-14T06:57:00;20.20;86.90
30534;DHT22;17318;52.390;9.754;2023-05-14T06:59:26;20.20;86.30
30534;DHT22;17318;52.390;9.754;2023-05-14T07:01:51;20.30;86.60
30534;DHT22;17318;52.390;9.754;2023-05-14T07:04:17;20.30;86.10
30534;DHT22;17318;52.390;9.754;2023-05-14T07:06:43;20.30;86.10
30534;DHT22;17318;52.390;9.754;2023-05-14T07:09:08;20.20;86.20
30534;DHT22;17318;52.390;9.754;2023-05-14T07:11:35;20.10;85.90
30534;DHT22;17318;52.390;9.754;2023-05-14T07:14:00;20.10;86.40
30534;DHT22;17318;52.390;9.754;2023-05-14T07:16:26;20.20;86.60
30534;DHT22;17318;52.390;9.754;2023-05-14T07:18:52;20.20;85.60
30534;DHT22;17318;52.390;9.754;2023-05-14T07:21:18;20.20;85.20
30534;DHT22;17318;52.390;9.754;2023-05-14T07:23:43;20.30;84.90
30534;DHT22;17318;52.390;9.754;2023-05-14T07:26:09;20.30;85.30
30534;DHT22;17318;52.390;9.754;2023-05-14T07:28:35;20.40;85.30
30534;DHT22;17318;52.390;9.754;2023-05-14T07:31:01;20.50;85.70
30534;DHT22;17318;52.390;9.754;2023-05-14T07:33:29;20.50;84.60
30534;DHT22;17318;52.390;9.754;2023-05-14T07:35:54;20.50;84.40
30534;DHT22;17318;52.390;9.754;2023-05-14T07:38:20;20.50;83.50
30534;DHT22;17318;52.390;9.754;2023-05-14T07:40:46;20.50;83.40
30534;DHT22;17318;52.390;9.754;2023-05-14T07:43:13;20.40;83.90
30534;DHT22;17318;52.390;9.754;2023-05-14T07:45:38;20.50;84.30
30534;DHT22;17318;52.390;9.754;2023-05-14T07:48:04;20.30;83.90
30534;DHT22;17318;52.390;9.754;2023-05-14T07:50:30;20.30;83.60
30534;DHT22;17318;52.390;9.754;2023-05-14T07:52:56;20.50;83.20
30534;DHT22;17318;52.390;9.754;2023-05-14T07:55:22;20.60;82.70
30534;DHT22;17318;52.390;9.754;2023-05-14T07:57:48;20.80;83.60
30534;DHT22;17318;52.390;9.754;2023-05-14T08:00:13;20.80;82.90
30534;DHT22;17318;52.390;9.754;2023-05-14T08:02:40;21.10;82.50
30534;DHT22;17318;52.390;9.754;2023-05-14T08:05:07;21.30;81.30
30534;DHT22;17318;52.390;9.754;2023-05-14T08:07:33;21.60;80.20
30534;DHT22;17318;52.390;9.754;2023-05-14T08:09:59;22.00;80.80
30534;DHT22;17318;52.390;9.754;2023-05-14T08:12:24;22.20;79.20
30534;DHT22;17318;52.390;9.754;2023-05-14T08:14:51;22.20;79.10
30534;DHT22;17318;52.390;9.754;2023-05-14T08:17:17;23.20;79.70
30534;DHT22;17318;52.390;9.754;2023-05-14T08:19:43;23.80;79.10
30534;DHT22;17318;52.390;9.754;2023-05-14T08:22:08;24.90;77.00
30534;DHT22;17318;52.390;9.754;2023-05-14T08:24:34;26.00;73.80
30534;DHT22;17318;52.390;9.754;2023-05-14T08:27:00;27.00;71.20
30534;DHT22;17318;52.390;9.754;2023-05-14T08:29:26;27.80;68.60
30534;DHT22;17318;52.390;9.754;2023-05-14T08:31:52;28.20;65.60
30534;DHT22;17318;52.390;9.754;2023-05-14T08:34:18;28.20;64.00
30534;DHT22;17318;52.390;9.754;2023-05-14T08:36:43;28.40;62.00
30534;DHT22;17318;52.390;9.754;2023-05-14T08:39:09;28.90;59.40
30534;DHT22;17318;52.390;9.754;2023-05-14T08:41:35;29.40;59.40
30534;DHT22;17318;52.390;9.754;2023-05-14T08:44:18;29.80;57.50
30534;DHT22;17318;52.390;9.754;2023-05-14T08:46:45;30.00;56.80
30534;DHT22;17318;52.390;9.754;2023-05-14T08:51:55;30.80;55.80
30534;DHT22;17318;52.390;9.754;2023-05-14T08:54:22;31.10;52.60
30534;DHT22;17318;52.390;9.754;2023-05-14T08:56:50;31.40;51.80
30534;DHT22;17318;52.390;9.754;2023-05-14T08:59:16;31.80;49.10
30534;DHT22;17318;52.390;9.754;2023-05-14T09:01:46;31.70;49.60
30534;DHT22;17318;52.390;9.754;2023-05-14T09:04:14;31.60;48.10
30534;DHT22;17318;52.390;9.754;2023-05-14T09:06:42;32.30;47.90
30534;DHT22;17318;52.390;9.754;2023-05-14T09:09:08;32.30;46.10
30534;DHT22;17318;52.390;9.754;2023-05-14T09:11:49;31.80;45.80
30534;DHT22;17318;52.390;9.754;2023-05-14T09:14:16;31.80;45.70
30534;DHT22;17318;52.390;9.754;2023-05-14T09:16:46;31.80;45.90
30534;DHT22;17318;52.390;9.754;2023-05-14T09:19:13;32.30;45.60
30534;DHT22;17318;52.390;9.754;2023-05-14T09:21:39;32.70;44.10
30534;DHT22;17318;52.390;9.754;2023-05-14T09:24:05;32.90;43.90
30534;DHT22;17318;52.390;9.754;2023-05-14T09:26:32;33.20;43.70
30534;DHT22;17318;52.390;9.754;2023-05-14T09:28:59;33.10;43.70
30534;DHT22;17318;52.390;9.754;2023-05-14T09:31:26;32.70;42.90
30534;DHT22;17318;52.390;9.754;2023-05-14T09:33:52;32.00;43.80
30534;DHT22;17318;52.390;9.754;2023-05-14T09:36:18;31.80;43.90
30534;DHT22;17318;52.390;9.754;2023-05-14T09:38:44;31.50;43.40
30534;DHT22;17318;52.390;9.754;2023-05-14T09:41:10;31.60;43.40
30534;DHT22;17318;52.390;9.754;2023-05-14T09:43:36;31.00;43.60
30534;DHT22;17318;52.390;9.754;2023-05-14T09:46:02;30.80;44.80
30534;DHT22;17318;52.390;9.754;2023-05-14T09:48:27;30.90;44.50
30534;DHT22;17318;52.390;9.754;2023-05-14T09:50:53;30.40;44.60
30534;DHT22;17318;52.390;9.754;2023-05-14T09:53:19;30.80;43.80
30534;DHT22;17318;52.390;9.754;2023-05-14T09:55:45;30.60;43.70
30534;DHT22;17318;52.390;9.754;2023-05-14T09:58:11;30.10;44.40
30534;DHT22;17318;52.390;9.754;2023-05-14T10:00:44;29.30;45.20
30534;DHT22;17318;52.390;9.754;2023-05-14T10:03:12;29.20;45.20
30534;DHT22;17318;52.390;9.754;2023-05-14T10:05:42;28.70;45.40
30534;DHT22;17318;52.390;9.754;2023-05-14T10:08:13;28.60;45.80
30534;DHT22;17318;52.390;9.754;2023-05-14T10:10:44;28.40;46.70
30534;DHT22;17318;52.390;9.754;2023-05-14T10:13:13;28.20;46.70
30534;DHT22;17318;52.390;9.754;2023-05-14T10:15:42;28.00;46.90
30534;DHT22;17318;52.390;9.754;2023-05-14T10:18:15;27.50;47.90
30534;DHT22;17318;52.390;9.754;2023-05-14T10:20:42;27.40;48.70
30534;DHT22;17318;52.390;9.754;2023-05-14T10:23:08;27.20;48.30
30534;DHT22;17318;52.390;9.754;2023-05-14T10:25:35;26.90;49.60
30534;DHT22;17318;52.390;9.754;2023-05-14T10:28:01;26.70;49.90
30534;DHT22;17318;52.390;9.754;2023-05-14T10:30:27;26.70;49.20
30534;DHT22;17318;52.390;9.754;2023-05-14T10:33:11;26.80;48.40
30534;DHT22;17318;52.390;9.754;2023-05-14T10:36:10;26.50;48.90
30534;DHT22;17318;52.390;9.754;2023-05-14T10:38:36;26.60;48.70
30534;DHT22;17318;52.390;9.754;2023-05-14T10:43:29;26.10;49.30
30534;DHT22;17318;52.390;9.754;2023-05-14T10:45:56;26.30;49.90
30534;DHT22;17318;52.390;9.754;2023-05-14T10:48:23;26.30;49.50
30534;DHT22;17318;52.390;9.754;2023-05-14T10:50:50;26.30;50.90
30534;DHT22;17318;52.390;9.754;2023-05-14T10:53:16;26.20;50.20
30534;DHT22;17318;52.390;9.754;2023-05-14T10:55:43;26.00;49.50
30534;DHT22;17318;52.390;9.754;2023-05-14T10:58:12;26.10;50.50
30534;DHT22;17318;52.390;9.754;2023-05-14T11:00:38;26.10;50.30
30534;DHT22;17318;52.390;9.754;2023-05-14T11:03:06;25.70;49.90
30534;DHT22;17318;52.390;9.754;2023-05-14T11:05:32;25.60;50.70
30534;DHT22;17318;52.390;9.754;2023-05-14T11:08:04;25.40;50.90
30534;DHT22;17318;52.390;9.754;2023-05-14T11:10:32;25.30;50.60
30534;DHT22;17318;52.390;9.754;2023-05-14T11:12:59;25.10;51.20
30534;DHT22;17318;52.390;9.754;2023-05-14T11:15:25;25.00;51.10
30534;DHT22;17318;52.390;9.754;2023-05-14T11:17:53;25.10;50.60
30534;DHT22;17318;52.390;9.754;2023-05-14T11:20:19;24.90;49.60
30534;DHT22;17318;52.390;9.754;2023-05-14T11:22:47;25.00;51.00
30534;DHT22;17318;52.390;9.754;2023-05-14T11:25:13;25.00;51.30
30534;DHT22;17318;52.390;9.754;2023-05-14T11:27:40;24.90;50.90
30534;DHT22;17318;52.390;9.754;2023-05-14T11:30:14;24.80;51.00
30534;DHT22;17318;52.390;9.754;2023-05-14T11:32:43;24.90;51.00
30534;DHT22;17318;52.390;9.754;2023-05-14T11:35:09;25.10;51.20
30534;DHT22;17318;52.390;9.754;2023-05-14T11:37:35;25.20;51.30
30534;DHT22;17318;52.390;9.754;2023-05-14T11:40:01;24.90;51.10
30534;DHT22;17318;52.390;9.754;2023-05-14T11:42:27;24.90;52.10
30534;DHT22;17318;52.390;9.754;2023-05-14T11:44:52;24.70;52.10
30534;DHT22;17318;52.390;9.754;2023-05-14T11:47:20;24.50;52.00
30534;DHT22;17318;52.390;9.754;2023-05-14T11:49:46;24.60;52.80
30534;DHT22;17318;52.390;9.754;2023-05-14T11:52:14;24.40;52.80
30534;DHT22;17318;52.390;9.754;2023-05-14T11:54:41;24.50;52.90
30534;DHT22;17318;52.390;9.754;2023-05-14T11:57:17;24.50;52.70
30534;DHT22;17318;52.390;9.754;2023-05-14T11:59:44;24.50;52.40
30534;DHT22;17318;52.390;9.754;2023-05-14T12:02:11;24.70;51.00
30534;DHT22;17318;52.390;9.754;2023-05-14T12:04:38;24.60;50.40
30534;DHT22;17318;52.390;9.754;2023-05-14T12:07:12;24.50;49.70
30534;DHT22;17318;52.390;9.754;2023-05-14T12:09:48;24.30;48.40
30534;DHT22;17318;52.390;9.754;2023-05-14T12:12:17;24.40;49.10
30534;DHT22;17318;52.390;9.754;2023-05-14T12:14:44;24.30;49.50
30534;DHT22;17318;52.390;9.754;2023-05-14T12:17:20;24.20;49.20
30534;DHT22;17318;52.390;9.754;2023-05-14T12:19:52;24.20;50.10
30534;DHT22;17318;52.390;9.754;2023-05-14T12:22:21;24.00;50.00
30534;DHT22;17318;52.390;9.754;2023-05-14T12:24:54;24.20;50.60
30534;DHT22;17318;52.390;9.754;2023-05-14T12:27:22;23.90;50.90
30534;DHT22;17318;52.390;9.754;2023-05-14T12:29:50;24.00;51.90
30534;DHT22;17318;52.390;9.754;2023-05-14T12:32:18;24.20;52.20
30534;DHT22;17318;52.390;9.754;2023-05-14T12:34:44;24.40;52.10
30534;DHT22;17318;52.390;9.754;2023-05-14T12:37:10;24.20;51.70
30534;DHT22;17318;52.390;9.754;2023-05-14T12:39:35;24.20;52.60
30534;DHT22;17318;52.390;9.754;2023-05-14T12:42:01;24.10;52.50
30534;DHT22;17318;52.390;9.754;2023-05-14T12:44:27;23.90;52.10
30534;DHT22;17318;52.390;9.754;2023-05-14T12:46:53;23.90;52.60
30534;DHT22;17318;52.390;9.754;2023-05-14T12:49:19;23.90;51.90
30534;DHT22;17318;52.390;9.754;2023-05-14T12:51:45;23.80;51.90
30534;DHT22;17318;52.390;9.754;2023-05-14T12:54:11;23.80;50.50
30534;DHT22;17318;52.390;9.754;2023-05-14T12:56:37;23.70;50.10
30534;DHT22;17318;52.390;9.754;2023-05-14T12:59:03;23.60;50.20
30534;DHT22;17318;52.390;9.754;2023-05-14T13:01:29;23.60;50.60
30534;DHT22;17318;52.390;9.754;2023-05-14T13:03:55;23.70;49.20
30534;DHT22;17318;52.390;9.754;2023-05-14T13:06:21;23.60;50.20
30534;DHT22;17318;52.390;9.754;2023-05-14T13:08:46;23.60;50.40
30534;DHT22;17318;52.390;9.754;2023-05-14T13:11:12;23.70;50.30
30534;DHT22;17318;52.390;9.754;2023-05-14T13:13:38;23.70;51.40
30534;DHT22;17318;52.390;9.754;2023-05-14T13:16:04;23.60;51.20
30534;DHT22;17318;52.390;9.754;2023-05-14T13:18:30;23.40;50.40
30534;DHT22;17318;52.390;9.754;2023-05-14T13:20:55;23.60;51.70
30534;DHT22;17318;52.390;9.754;2023-05-14T13:23:21;23.70;52.00
30534;DHT22;17318;52.390;9.754;2023-05-14T13:25:47;23.80;51.30
30534;DHT22;17318;52.390;9.754;2023-05-14T13:28:15;23.80;50.10
30534;DHT22;17318;52.390;9.754;2023-05-14T13:31:02;23.80;50.40
30534;DHT22;17318;52.390;9.754;2023-05-14T13:33:28;23.70;51.60
30534;DHT22;17318;52.390;9.754;2023-05-14T13:35:54;23.60;51.00
30534;DHT22;17318;52.390;9.754;2023-05-14T13:38:20;23.50;51.70
30534;DHT22;17318;52.390;9.754;2023-05-14T13:40:46;23.50;51.50
30534;DHT22;17318;52.390;9.754;2023-05-14T13:43:12;23.60;51.40
30534;DHT22;17318;52.390;9.754;2023-05-14T13:45:37;23.60;51.20
30534;DHT22;17318;52.390;9.754;2023-05-14T13:48:03;23.60;51.90
30534;DHT22;17318;52.390;9.754;2023-05-14T13:50:29;23.60;51.70
30534;DHT22;17318;52.390;9.754;2023-05-14T13:52:54;23.40;51.60
30534;DHT22;17318;52.390;9.754;2023-05-14T13:55:20;23.20;51.40
30534;DHT22;17318;52.390;9.754;2023-05-14T13:57:47;23.20;52.30
30534;DHT22;17318;52.390;9.754;2023-05-14T14:00:13;23.20;51.70
30534;DHT22;17318;52.390;9.754;2023-05-14T14:02:40;23.20;52.00
30534;DHT22;17318;52.390;9.754;2023-05-14T14:05:06;23.20;52.40
30534;DHT22;17318;52.390;9.754;2023-05-14T14:07:31;23.10;52.30
30534;DHT22;17318;52.390;9.754;2023-05-14T14:09:57;23.10;52.40
30534;DHT22;17318;52.390;9.754;2023-05-14T14:12:25;22.90;52.30
30534;DHT22;17318;52.390;9.754;2023-05-14T14:14:51;22.80;52.80
30534;DHT22;17318;52.390;9.754;2023-05-14T14:17:17;22.60;53.00
30534;DHT22;17318;52.390;9.754;2023-05-14T14:19:43;22.50;53.10
30534;DHT22;17318;52.390;9.754;2023-05-14T14:22:08;22.50;52.70
30534;DHT22;17318;52.390;9.754;2023-05-14T14:24:34;22.40;52.40
30534;DHT22;17318;52.390;9.754;2023-05-14T14:26:59;22.30;52.90
30534;DHT22;17318;52.390;9.754;2023-05-14T14:29:26;22.30;53.40
30534;DHT22;17318;52.390;9.754;2023-05-14T14:31:56;22.30;53.60
30534;DHT22;17318;52.390;9.754;2023-05-14T14:34:21;22.20;54.60
30534;DHT22;17318;52.390;9.754;2023-05-14T14:36:47;22.20;54.20
30534;DHT22;17318;52.390;9.754;2023-05-14T14:39:12;22.10;54.20
30534;DHT22;17318;52.390;9.754;2023-05-14T14:41:38;22.10;54.20
30534;DHT22;17318;52.390;9.754;2023-05-14T14:44:04;22.20;54.70
30534;DHT22;17318;52.390;9.754;2023-05-14T14:46:31;22.20;54.30
30534;DHT22;17318;52.390;9.754;2023-05-14T14:48:56;22.20;54.10
30534;DHT22;17318;52.390;9.754;2023-05-14T14:51:22;22.20;53.70
30534;DHT22;17318;52.390;9.754;2023-05-14T14:53:48;22.20;53.50
30534;DHT22;17318;52.390;9.754;2023-05-14T14:56:14;22.30;53.30
30534;DHT22;17318;52.390;9.754;2023-05-14T14:58:40;22.40;53.10
30534;DHT22;17318;52.390;9.754;2023-05-14T15:01:05;22.50;53.20
30534;DHT22;17318;52.390;9.754;2023-05-14T15:03:31;22.50;53.20
30534;DHT22;17318;52.390;9.754;2023-05-14T15:05:57;22.50;53.70
30534;DHT22;17318;52.390;9.754;2023-05-14T15:08:27;22.50;53.70
30534;DHT22;17318;52.390;9.754;2023-05-14T15:10:54;22.60;53.50
30534;DHT22;17318;52.390;9.754;2023-05-14T15:13:21;22.60;53.50
30534;DHT22;17318;52.390;9.754;2023-05-14T15:15:48;22.50;53.00
30534;DHT22;17318;52.390;9.754;2023-05-14T15:18:14;22.60;53.10
30534;DHT22;17318;52.390;9.754;2023-05-14T15:20:40;22.50;52.90
30534;DHT22;17318;52.390;9.754;2023-05-14T15:23:06;22.60;53.00
30534;DHT22;17318;52.390;9.754;2023-05-14T15:25:32;22.60;52.70
30534;DHT22;17318;52.390;9.754;2023-05-14T15:27:57;22.60;52.90
30534;DHT22;17318;52.390;9.754;2023-05-14T15:30:23;22.70;52.80
30534;DHT22;17318;52.390;9.754;2023-05-14T15:32:49;22.80;52.80
30534;DHT22;17318;52.390;9.754;2023-05-14T15:35:14;22.90;52.90
30534;DHT22;17318;52.390;9.754;2023-05-14T15:37:42;22.60;52.70